sensor_id;sensor_type;location;lat;lon;timestamp;pressure;altitude;pressure_sealevel;temperature;humidity
61573;BME280;47465;43.094;12.434;2023-03-22T00:02:06;98694.66;;;8.80;100.00
61573;BME280;47465;43.094;12.434;2023-03-22T00:04:35;98687.97;;;8.62;100.00
61573;BME280;47465;43.094;12.434;2023-03-22T00:07:02;98690.94;;;8.47;100.00
61573;BME280;47465;43.094;12.434;2023-03-22T00:09:31;98684.22;;;8.27;100.00
61573;BME280;47465;43.094;12.434;2023-03-22T00:12:00;98719.16;;;8.49;100.00
61573;BME280;47465;43.094;12.434;2023-03-22T00:14:29;98688.41;;;8.40;100.00
61573;BME280;47465;43.094;12.434;2023-03-22T00:16:57;98682.78;;;8.56;100.00
61573;BME280;47465;43.094;12.434;2023-03-22T00:19:23;98683.75;;;8.53;100.00
61573;BME280;47465;43.094;12.434;2023-03-22T00:21:53;98698.03;;;8.45;100.00
61573;BME280;47465;43.094;12.434;2023-03-22T00:24:26;98696.53;;;8.30;100.00
61573;BME280;47465;43.094;12.434;2023-03-22T00:26:52;98725.78;;;8.23;100.00
61573;BME280;47465;43.094;12.434;2023-03-22T00:29:19;98704.28;;;7.91;100.00
61573;BME280;47465;43.094;12.434;2023-03-22T00:31:49;98710.59;;;7.85;100.00
61573;BME280;47465;43.094;12.434;2023-03-22T00:34:19;98705.44;;;7.76;100.00
61573;BME280;47465;43.094;12.434;2023-03-22T00:36:47;98715.22;;;7.72;100.00
61573;BME280;47465;43.094;12.434;2023-03-22T00:39:14;98710.19;;;7.54;100.00
61573;BME280;47465;43.094;12.434;2023-03-22T00:41:41;98707.56;;;7.54;100.00
61573;BME280;47465;43.094;12.434;2023-03-22T00:44:08;98706.88;;;7.41;100.00
61573;BME280;47465;43.094;12.434;2023-03-22T00:46:37;98707.00;;;7.32;100.00
61573;BME280;47465;43.094;12.434;2023-03-22T00:49:05;98716.69;;;7.33;100.00
61573;BME280;47465;43.094;12.434;2023-03-22T00:51:38;98704.47;;;7.24;100.00
61573;BME280;47465;43.094;12.434;2023-03-22T00:54:06;98707.16;;;7.23;100.00
61573;BME280;47465;43.094;12.434;2023-03-22T00:56:32;98707.22;;;7.18;100.00
61573;BME280;47465;43.094;12.434;2023-03-22T00:59:00;98742.94;;;7.47;100.00
61573;BME280;47465;43.094;12.434;2023-03-22T01:01:27;98698.31;;;7.24;100.00
61573;BME280;47465;43.094;12.434;2023-03-22T01:03:57;98699.28;;;7.18;100.00
61573;BME280;47465;43.094;12.434;2023-03-22T01:06:24;98691.38;;;7.15;100.00
61573;BME280;47465;43.094;12.434;2023-03-22T01:08:53;98729.97;;;7.28;100.00
61573;BME280;47465;43.094;12.434;2023-03-22T01:11:22;98687.16;;;7.03;100.00
61573;BME280;47465;43.094;12.434;2023-03-22T01:13:51;98735.44;;;7.17;100.00
61573;BME280;47465;43.094;12.434;2023-03-22T01:16:19;98719.66;;;7.11;100.00
61573;BME280;47465;43.094;12.434;2023-03-22T01:18:46;98693.53;;;6.90;100.00
61573;BME280;47465;43.094;12.434;2023-03-22T01:21:12;98702.25;;;6.96;100.00
61573;BME280;47465;43.094;12.434;2023-03-22T01:23:44;98690.69;;;7.04;100.00
61573;BME280;47465;43.094;12.434;2023-03-22T01:26:12;98691.63;;;6.99;100.00
61573;BME280;47465;43.094;12.434;2023-03-22T01:28:41;98696.06;;;6.96;100.00
61573;BME280;47465;43.094;12.434;2023-03-22T01:31:10;98693.47;;;6.91;100.00
61573;BME280;47465;43.094;12.434;2023-03-22T01:33:38;98712.84;;;6.93;100.00
61573;BME280;47465;43.094;12.434;2023-03-22T01:36:05;98692.72;;;6.83;100.00
61573;BME280;47465;43.094;12.434;2023-03-22T01:38:31;98713.81;;;6.88;100.00
61573;BME280;47465;43.094;12.434;2023-03-22T01:40:58;98684.09;;;6.67;100.00
61573;BME280;47465;43.094;12.434;2023-03-22T01:43:28;98692.03;;;6.66;100.00
61573;BME280;47465;43.094;12.434;2023-03-22T01:45:55;98685.09;;;6.60;100.00
61573;BME280;47465;43.094;12.434;2023-03-22T01:48:26;98701.06;;;6.51;100.00
61573;BME280;47465;43.094;12.434;2023-03-22T01:51:04;98699.28;;;6.50;100.00
61573;BME280;47465;43.094;12.434;2023-03-22T01:53:40;98721.09;;;6.69;100.00
61573;BME280;47465;43.094;12.434;2023-03-22T01:56:12;98696.66;;;6.50;100.00
61573;BME280;47465;43.094;12.434;2023-03-22T01:58:41;98728.97;;;6.72;100.00
61573;BME280;47465;43.094;12.434;2023-03-22T02:01:09;98689.66;;;6.47;100.00
61573;BME280;47465;43.094;12.434;2023-03-22T02:03:42;98697.56;;;6.47;100.00
61573;BME280;47465;43.094;12.434;2023-03-22T02:06:15;98692.34;;;6.44;100.00
61573;BME280;47465;43.094;12.434;2023-03-22T02:08:42;98695.84;;;6.43;100.00
61573;BME280;47465;43.094;12.434;2023-03-22T02:11:15;98735.22;;;6.65;100.00
61573;BME280;47465;43.094;12.434;2023-03-22T02:16:43;98691.44;;;6.44;100.00
61573;BME280;47465;43.094;12.434;2023-03-22T02:22:46;98694.13;;;6.42;100.00
61573;BME280;47465;43.094;12.434;2023-03-22T02:25:41;98685.41;;;6.34;100.00
61573;BME280;47465;43.094;12.434;2023-03-22T02:28:17;98704.69;;;6.42;100.00
61573;BME280;47465;43.094;12.434;2023-03-22T02:31:03;98706.47;;;6.37;100.00
61573;BME280;47465;43.094;12.434;2023-03-22T02:34:11;98704.75;;;6.36;100.00
61573;BME280;47465;43.094;12.434;2023-03-22T02:39:49;98718.72;;;6.46;100.00
61573;BME280;47465;43.094;12.434;2023-03-22T02:42:26;98714.34;;;6.43;100.00
61573;BME280;47465;43.094;12.434;2023-03-22T02:45:06;98742.31;;;6.61;100.00
61573;BME280;47465;43.094;12.434;2023-03-22T02:47:39;98700.34;;;6.36;100.00
61573;BME280;47465;43.094;12.434;2023-03-22T02:50:13;98723.13;;;6.44;100.00
61573;BME280;47465;43.094;12.434;2023-03-22T02:52:45;98695.97;;;6.31;100.00
61573;BME280;47465;43.094;12.434;2023-03-22T02:55:23;98704.81;;;6.31;100.00
61573;BME280;47465;43.094;12.434;2023-03-22T02:57:55;98700.47;;;6.24;100.00
61573;BME280;47465;43.094;12.434;2023-03-22T03:00:26;98694.25;;;6.28;100.00
61573;BME280;47465;43.094;12.434;2023-03-22T03:02:55;98691.69;;;6.22;100.00
61573;BME280;47465;43.094;12.434;2023-03-22T03:05:32;98696.03;;;6.26;100.00
61573;BME280;47465;43.094;12.434;2023-03-22T03:07:59;98686.38;;;6.27;100.00
61573;BME280;47465;43.094;12.434;2023-03-22T03:10:31;98694.28;;;6.27;100.00
61573;BME280;47465;43.094;12.434;2023-03-22T03:12:59;98712.69;;;6.34;100.00
61573;BME280;47465;43.094;12.434;2023-03-22T03:15:26;98703.03;;;6.32;100.00
61573;BME280;47465;43.094;12.434;2023-03-22T03:18:06;98701.34;;;6.25;100.00
61573;BME280;47465;43.094;12.434;2023-03-22T03:20:48;98698.72;;;6.25;100.00
61573;BME280;47465;43.094;12.434;2023-03-22T03:23:26;98721.50;;;6.33;100.00
61573;BME280;47465;43.094;12.434;2023-03-22T03:25:59;98697.00;;;6.19;100.00
61573;BME280;47465;43.094;12.434;2023-03-22T03:28:34;98696.03;;;6.26;100.00
61573;BME280;47465;43.094;12.434;2023-03-22T03:31:14;98703.09;;;6.27;100.00
61573;BME280;47465;43.094;12.434;2023-03-22T03:33:51;98697.88;;;6.21;100.00
61573;BME280;47465;43.094;12.434;2023-03-22T03:36:25;98690.00;;;6.16;100.00
61573;BME280;47465;43.094;12.434;2023-03-22T03:38:55;98702.22;;;6.25;100.00
61573;BME280;47465;43.094;12.434;2023-03-22T03:41:26;98706.59;;;6.29;100.00
61573;BME280;47465;43.094;12.434;2023-03-22T03:43:55;98708.31;;;6.30;100.00
61573;BME280;47465;43.094;12.434;2023-03-22T03:46:25;98747.66;;;6.56;100.00
61573;BME280;47465;43.094;12.434;2023-03-22T03:48:54;98710.09;;;6.30;100.00
61573;BME280;47465;43.094;12.434;2023-03-22T03:51:23;98710.09;;;6.28;100.00
61573;BME280;47465;43.094;12.434;2023-03-22T03:53:53;98708.38;;;6.24;100.00
61573;BME280;47465;43.094;12.434;2023-03-22T03:56:23;98733.00;;;6.29;100.00
61573;BME280;47465;43.094;12.434;2023-03-22T03:58:51;98724.22;;;6.24;100.00
61573;BME280;47465;43.094;12.434;2023-03-22T04:01:18;98703.19;;;6.15;100.00
61573;BME280;47465;43.094;12.434;2023-03-22T04:03:45;98728.59;;;6.28;100.00
61573;BME280;47465;43.094;12.434;2023-03-22T04:06:15;98718.09;;;6.22;100.00
61573;BME280;47465;43.094;12.434;2023-03-22T04:08:46;98713.00;;;6.05;100.00
61573;BME280;47465;43.094;12.434;2023-03-22T04:11:18;98715.59;;;6.08;100.00
61573;BME280;47465;43.094;12.434;2023-03-22T04:13:47;98715.59;;;6.07;100.00
61573;BME280;47465;43.094;12.434;2023-03-22T04:16:13;98712.00;;;6.15;100.00
61573;BME280;47465;43.094;12.434;2023-03-22T04:18:42;98736.59;;;6.21;100.00
61573;BME280;47465;43.094;12.434;2023-03-22T04:21:11;98720.00;;;6.06;100.00
61573;BME280;47465;43.094;12.434;2023-03-22T04:23:37;98725.34;;;6.03;100.00
61573;BME280;47465;43.094;12.434;2023-03-22T04:26:09;98725.28;;;6.05;100.00
61573;BME280;47465;43.094;12.434;2023-03-22T04:28:42;98727.06;;;6.06;100.00
61573;BME280;47465;43.094;12.434;2023-03-22T04:31:12;98722.66;;;6.06;100.00
61573;BME280;47465;43.094;12.434;2023-03-22T04:33:38;98725.28;;;6.08;100.00
61573;BME280;47465;43.094;12.434;2023-03-22T04:36:09;98725.28;;;6.08;100.00
61573;BME280;47465;43.094;12.434;2023-03-22T04:38:35;98725.28;;;6.08;100.00
61573;BME280;47465;43.094;12.434;2023-03-22T04:41:05;98726.16;;;6.10;100.00
61573;BME280;47465;43.094;12.434;2023-03-22T04:43:32;98734.06;;;6.10;100.00
61573;BME280;47465;43.094;12.434;2023-03-22T04:46:01;98718.22;;;6.10;100.00
61573;BME280;47465;43.094;12.434;2023-03-22T04:48:30;98764.63;;;6.34;100.00
61573;BME280;47465;43.094;12.434;2023-03-22T04:51:00;98726.97;;;6.15;100.00
61573;BME280;47465;43.094;12.434;2023-03-22T04:53:29;98729.66;;;6.10;100.00
61573;BME280;47465;43.094;12.434;2023-03-22T04:55:59;98722.66;;;6.08;100.00
61573;BME280;47465;43.094;12.434;2023-03-22T04:58:28;98727.13;;;6.00;100.00
61573;BME280;47465;43.094;12.434;2023-03-22T05:01:01;98721.91;;;5.90;100.00
61573;BME280;47465;43.094;12.434;2023-03-22T05:03:26;98770.13;;;6.14;100.00
61573;BME280;47465;43.094;12.434;2023-03-22T05:05:58;98756.97;;;6.08;100.00
61573;BME280;47465;43.094;12.434;2023-03-22T05:08:30;98762.25;;;6.06;100.00
61573;BME280;47465;43.094;12.434;2023-03-22T05:10:58;98749.09;;;6.02;100.00
61573;BME280;47465;43.094;12.434;2023-03-22T05:13:26;98724.53;;;5.90;100.00
61573;BME280;47465;43.094;12.434;2023-03-22T05:15:55;98723.66;;;5.88;100.00
61573;BME280;47465;43.094;12.434;2023-03-22T05:18:22;98728.09;;;5.88;100.00
61573;BME280;47465;43.094;12.434;2023-03-22T05:20:53;98729.88;;;5.81;100.00
61573;BME280;47465;43.094;12.434;2023-03-22T05:23:22;98731.59;;;5.88;100.00
61573;BME280;47465;43.094;12.434;2023-03-22T05:25:50;98762.25;;;6.05;100.00
61573;BME280;47465;43.094;12.434;2023-03-22T05:28:17;98718.50;;;5.76;100.00
61573;BME280;47465;43.094;12.434;2023-03-22T05:30:46;98728.19;;;5.75;100.00
61573;BME280;47465;43.094;12.434;2023-03-22T05:33:16;98739.56;;;5.81;100.00
61573;BME280;47465;43.094;12.434;2023-03-22T05:35:54;98745.66;;;5.87;100.00
61573;BME280;47465;43.094;12.434;2023-03-22T05:38:23;98736.81;;;5.91;100.00
61573;BME280;47465;43.094;12.434;2023-03-22T05:40:52;98746.50;;;5.95;100.00
61573;BME280;47465;43.094;12.434;2023-03-22T05:43:18;98795.50;;;6.27;100.00
61573;BME280;47465;43.094;12.434;2023-03-22T05:45:44;98744.63;;;6.10;100.00
61573;BME280;47465;43.094;12.434;2023-03-22T05:48:11;98755.03;;;6.25;100.00
61573;BME280;47465;43.094;12.434;2023-03-22T05:50:39;98760.16;;;6.42;100.00
61573;BME280;47465;43.094;12.434;2023-03-22T05:53:05;98747.75;;;6.47;100.00
61573;BME280;47465;43.094;12.434;2023-03-22T05:55:37;98764.34;;;6.62;100.00
61573;BME280;47465;43.094;12.434;2023-03-22T05:58:06;98750.16;;;6.67;100.00
61573;BME280;47465;43.094;12.434;2023-03-22T06:00:33;98769.28;;;6.89;100.00
61573;BME280;47465;43.094;12.434;2023-03-22T06:03:00;98750.69;;;6.95;100.00
61573;BME280;47465;43.094;12.434;2023-03-22T06:05:29;98758.50;;;7.08;100.00
61573;BME280;47465;43.094;12.434;2023-03-22T06:07:58;98756.56;;;7.19;100.00
61573;BME280;47465;43.094;12.434;2023-03-22T06:10:26;98761.63;;;7.37;100.00
61573;BME280;47465;43.094;12.434;2023-03-22T06:13:02;98759.63;;;7.50;100.00
61573;BME280;47465;43.094;12.434;2023-03-22T06:15:30;98763.88;;;7.64;100.00
61573;BME280;47465;43.094;12.434;2023-03-22T06:17:58;98760.22;;;7.71;100.00
61573;BME280;47465;43.094;12.434;2023-03-22T06:20:24;98746.03;;;7.75;100.00
61573;BME280;47465;43.094;12.434;2023-03-22T06:22:50;98744.09;;;7.86;100.00
61573;BME280;47465;43.094;12.434;2023-03-22T06:25:17;98750.94;;;7.99;100.00
61573;BME280;47465;43.094;12.434;2023-03-22T06:27:47;98751.59;;;8.11;100.00
61573;BME280;47465;43.094;12.434;2023-03-22T06:30:18;98778.63;;;8.33;100.00
61573;BME280;47465;43.094;12.434;2023-03-22T06:32:52;98765.31;;;8.34;100.00
61573;BME280;47465;43.094;12.434;2023-03-22T06:35:18;98759.88;;;8.43;100.00
61573;BME280;47465;43.094;12.434;2023-03-22T06:37:45;98759.06;;;8.38;100.00
61573;BME280;47465;43.094;12.434;2023-03-22T06:40:14;98772.13;;;8.52;100.00
61573;BME280;47465;43.094;12.434;2023-03-22T06:42:40;98788.53;;;8.71;100.00
61573;BME280;47465;43.094;12.434;2023-03-22T06:45:10;98764.75;;;8.67;100.00
61573;BME280;47465;43.094;12.434;2023-03-22T06:47:40;98776.69;;;8.89;100.00
61573;BME280;47465;43.094;12.434;2023-03-22T06:50:07;98778.22;;;9.01;100.00
61573;BME280;47465;43.094;12.434;2023-03-22T06:52:36;98770.13;;;9.07;100.00
61573;BME280;47465;43.094;12.434;2023-03-22T06:55:02;98762.84;;;9.17;100.00
61573;BME280;47465;43.094;12.434;2023-03-22T06:57:33;98762.59;;;9.28;100.00
61573;BME280;47465;43.094;12.434;2023-03-22T07:00:04;98795.53;;;9.59;100.00
61573;BME280;47465;43.094;12.434;2023-03-22T07:02:32;98777.94;;;9.55;100.00
61573;BME280;47465;43.094;12.434;2023-03-22T07:05:00;98789.75;;;9.79;100.00
61573;BME280;47465;43.094;12.434;2023-03-22T07:07:26;98765.13;;;9.73;99.23
61573;BME280;47465;43.094;12.434;2023-03-22T07:09:52;98773.66;;;9.87;99.33
61573;BME280;47465;43.094;12.434;2023-03-22T07:12:18;98788.16;;;10.08;99.56
61573;BME280;47465;43.094;12.434;2023-03-22T07:14:50;98768.69;;;10.07;98.11
61573;BME280;47465;43.094;12.434;2023-03-22T07:17:16;98776.44;;;10.17;97.98
61573;BME280;47465;43.094;12.434;2023-03-22T07:19:46;98775.22;;;10.32;97.58
61573;BME280;47465;43.094;12.434;2023-03-22T07:24:55;98783.44;;;10.57;95.26
61573;BME280;47465;43.094;12.434;2023-03-22T07:27:25;98780.06;;;10.50;94.67
61573;BME280;47465;43.094;12.434;2023-03-22T07:29:55;98779.00;;;10.56;94.58
61573;BME280;47465;43.094;12.434;2023-03-22T07:32:21;98799.97;;;10.68;94.79
61573;BME280;47465;43.094;12.434;2023-03-22T07:34:50;98781.94;;;10.78;92.76
61573;BME280;47465;43.094;12.434;2023-03-22T07:37:19;98785.91;;;10.96;93.90
61573;BME280;47465;43.094;12.434;2023-03-22T07:39:45;98793.28;;;11.17;92.01
61573;BME280;47465;43.094;12.434;2023-03-22T07:42:13;98794.47;;;11.37;90.88
61573;BME280;47465;43.094;12.434;2023-03-22T07:44:41;98791.28;;;11.54;87.71
61573;BME280;47465;43.094;12.434;2023-03-22T07:47:10;98784.69;;;11.37;89.02
61573;BME280;47465;43.094;12.434;2023-03-22T07:49:36;98810.75;;;11.56;90.24
61573;BME280;47465;43.094;12.434;2023-03-22T07:52:03;98798.47;;;11.51;90.06
61573;BME280;47465;43.094;12.434;2023-03-22T07:54:31;98825.88;;;11.83;89.27
61573;BME280;47465;43.094;12.434;2023-03-22T07:56:58;98803.44;;;11.92;88.43
61573;BME280;47465;43.094;12.434;2023-03-22T07:59:25;98782.72;;;12.02;85.43
61573;BME280;47465;43.094;12.434;2023-03-22T08:01:55;98793.91;;;12.11;85.33
61573;BME280;47465;43.094;12.434;2023-03-22T08:04:24;98790.13;;;12.19;84.21
61573;BME280;47465;43.094;12.434;2023-03-22T08:06:53;98807.06;;;12.18;85.31
61573;BME280;47465;43.094;12.434;2023-03-22T08:09:24;98788.75;;;12.33;86.38
61573;BME280;47465;43.094;12.434;2023-03-22T08:11:50;98781.47;;;12.64;83.94
61573;BME280;47465;43.094;12.434;2023-03-22T08:14:16;98780.50;;;12.91;81.64
61573;BME280;47465;43.094;12.434;2023-03-22T08:16:44;98788.50;;;13.17;80.65
61573;BME280;47465;43.094;12.434;2023-03-22T08:19:11;98778.66;;;13.17;80.25
61573;BME280;47465;43.094;12.434;2023-03-22T08:21:37;98768.66;;;13.22;79.03
61573;BME280;47465;43.094;12.434;2023-03-22T08:24:05;98777.00;;;13.14;79.41
61573;BME280;47465;43.094;12.434;2023-03-22T08:26:31;98807.00;;;13.21;80.49
61573;BME280;47465;43.094;12.434;2023-03-22T08:28:57;98780.38;;;12.94;80.34
61573;BME280;47465;43.094;12.434;2023-03-22T08:31:24;98821.44;;;12.65;82.33
61573;BME280;47465;43.094;12.434;2023-03-22T08:33:52;98792.88;;;12.42;84.12
61573;BME280;47465;43.094;12.434;2023-03-22T08:36:20;98799.94;;;12.45;84.35
61573;BME280;47465;43.094;12.434;2023-03-22T08:38:47;98795.34;;;12.48;84.36
61573;BME280;47465;43.094;12.434;2023-03-22T08:41:14;98795.31;;;12.50;84.98
61573;BME280;47465;43.094;12.434;2023-03-22T08:43:41;98784.91;;;12.67;84.54
61573;BME280;47465;43.094;12.434;2023-03-22T08:46:07;98788.50;;;12.91;83.56
61573;BME280;47465;43.094;12.434;2023-03-22T08:48:33;98780.06;;;13.04;81.37
61573;BME280;47465;43.094;12.434;2023-03-22T08:51:04;98783.69;;;13.25;81.62
61573;BME280;47465;43.094;12.434;2023-03-22T08:53:31;98800.09;;;13.63;79.71
61573;BME280;47465;43.094;12.434;2023-03-22T08:55:56;98806.06;;;13.93;77.74
61573;BME280;47465;43.094;12.434;2023-03-22T08:58:26;98785.94;;;14.05;77.39
61573;BME280;47465;43.094;12.434;2023-03-22T09:00:53;98780.78;;;14.22;76.60
61573;BME280;47465;43.094;12.434;2023-03-22T09:03:19;98803.34;;;14.37;75.80
61573;BME280;47465;43.094;12.434;2023-03-22T09:05:48;98775.38;;;14.24;76.14
61573;BME280;47465;43.094;12.434;2023-03-22T09:08:16;98782.88;;;14.36;75.87
61573;BME280;47465;43.094;12.434;2023-03-22T09:10:48;98789.94;;;14.16;75.57
61573;BME280;47465;43.094;12.434;2023-03-22T09:13:19;98799.63;;;14.19;76.78
61573;BME280;47465;43.094;12.434;2023-03-22T09:15:46;98781.59;;;14.24;77.29
61573;BME280;47465;43.094;12.434;2023-03-22T09:18:13;98787.25;;;14.38;76.99
61573;BME280;47465;43.094;12.434;2023-03-22T09:20:41;98765.78;;;14.40;77.41
61573;BME280;47465;43.094;12.434;2023-03-22T09:23:11;98785.88;;;14.71;76.33
61573;BME280;47465;43.094;12.434;2023-03-22T09:25:45;98795.53;;;14.75;76.39
61573;BME280;47465;43.094;12.434;2023-03-22T09:28:18;98802.72;;;14.30;77.32
61573;BME280;47465;43.094;12.434;2023-03-22T09:30:46;98767.97;;;14.30;78.43
61573;BME280;47465;43.094;12.434;2023-03-22T09:33:13;98775.97;;;14.30;78.99
61573;BME280;47465;43.094;12.434;2023-03-22T09:35:40;98762.28;;;14.38;79.69
61573;BME280;47465;43.094;12.434;2023-03-22T09:38:08;98767.84;;;14.54;78.92
61573;BME280;47465;43.094;12.434;2023-03-22T09:40:38;98786.69;;;14.30;78.51
61573;BME280;47465;43.094;12.434;2023-03-22T09:43:13;98761.16;;;14.44;79.39
61573;BME280;47465;43.094;12.434;2023-03-22T09:53:31;98747.56;;;14.89;75.56
61573;BME280;47465;43.094;12.434;2023-03-22T09:56:01;98749.28;;;15.11;75.69
61573;BME280;47465;43.094;12.434;2023-03-22T09:58:35;98782.13;;;15.54;73.21
61573;BME280;47465;43.094;12.434;2023-03-22T10:01:08;98777.03;;;15.10;73.99
61573;BME280;47465;43.094;12.434;2023-03-22T10:03:59;98745.03;;;15.26;75.43
61573;BME280;47465;43.094;12.434;2023-03-22T10:06:27;98739.81;;;15.41;72.10
61573;BME280;47465;43.094;12.434;2023-03-22T10:09:05;98747.91;;;15.59;72.74
61573;BME280;47465;43.094;12.434;2023-03-22T10:11:40;98737.22;;;15.78;72.71
61573;BME280;47465;43.094;12.434;2023-03-22T10:14:22;98771.91;;;16.00;70.76
61573;BME280;47465;43.094;12.434;2023-03-22T10:16:57;98737.72;;;15.48;72.65
61573;BME280;47465;43.094;12.434;2023-03-22T10:19:28;98727.69;;;15.72;71.50
61573;BME280;47465;43.094;12.434;2023-03-22T10:21:58;98727.50;;;15.94;70.98
61573;BME280;47465;43.094;12.434;2023-03-22T10:24:30;98724.03;;;16.10;70.60
61573;BME280;47465;43.094;12.434;2023-03-22T10:27:09;98717.66;;;16.30;71.23
61573;BME280;47465;43.094;12.434;2023-03-22T10:29:42;98705.03;;;16.32;69.54
61573;BME280;47465;43.094;12.434;2023-03-22T10:32:16;98729.47;;;16.08;67.88
61573;BME280;47465;43.094;12.434;2023-03-22T10:34:45;98737.50;;;15.91;67.83
61573;BME280;47465;43.094;12.434;2023-03-22T10:37:18;98707.19;;;15.89;67.62
61573;BME280;47465;43.094;12.434;2023-03-22T10:39:50;98727.59;;;16.10;67.31
61573;BME280;47465;43.094;12.434;2023-03-22T10:42:21;98705.25;;;16.10;66.30
61573;BME280;47465;43.094;12.434;2023-03-22T10:44:54;98715.28;;;16.23;67.44
61573;BME280;47465;43.094;12.434;2023-03-22T10:47:28;98708.31;;;16.19;65.46
61573;BME280;47465;43.094;12.434;2023-03-22T10:49:59;98715.31;;;15.87;67.87
61573;BME280;47465;43.094;12.434;2023-03-22T10:52:43;98711.84;;;16.02;68.47
61573;BME280;47465;43.094;12.434;2023-03-22T10:55:13;98713.19;;;15.94;68.44
61573;BME280;47465;43.094;12.434;2023-03-22T10:57:41;98718.56;;;15.94;68.19
61573;BME280;47465;43.094;12.434;2023-03-22T11:00:14;98706.13;;;16.10;66.26
61573;BME280;47465;43.094;12.434;2023-03-22T11:02:50;98701.63;;;16.11;63.74
61573;BME280;47465;43.094;12.434;2023-03-22T11:05:22;98686.97;;;16.18;67.44
61573;BME280;47465;43.094;12.434;2023-03-22T11:07:49;98694.13;;;16.35;68.18
61573;BME280;47465;43.094;12.434;2023-03-22T11:10:22;98708.75;;;16.47;66.80
61573;BME280;47465;43.094;12.434;2023-03-22T11:12:51;98696.50;;;16.41;68.32
61573;BME280;47465;43.094;12.434;2023-03-22T11:15:23;98691.41;;;16.52;68.09
61573;BME280;47465;43.094;12.434;2023-03-22T11:17:59;98720.94;;;16.70;66.96
61573;BME280;47465;43.094;12.434;2023-03-22T11:20:25;98688.38;;;16.42;66.28
61573;BME280;47465;43.094;12.434;2023-03-22T11:22:58;98684.34;;;16.51;65.72
61573;BME280;47465;43.094;12.434;2023-03-22T11:25:32;98680.63;;;16.54;66.01
61573;BME280;47465;43.094;12.434;2023-03-22T11:28:07;98716.38;;;16.54;63.61
61573;BME280;47465;43.094;12.434;2023-03-22T11:30:36;98704.06;;;16.50;65.65
61573;BME280;47465;43.094;12.434;2023-03-22T11:33:15;98688.66;;;16.54;67.40
61573;BME280;47465;43.094;12.434;2023-03-22T11:35:47;98692.63;;;16.47;65.10
61573;BME280;47465;43.094;12.434;2023-03-22T11:38:23;98680.06;;;16.47;64.44
61573;BME280;47465;43.094;12.434;2023-03-22T11:40:54;98685.59;;;16.61;65.14
61573;BME280;47465;43.094;12.434;2023-03-22T11:43:23;98675.28;;;16.70;62.27
61573;BME280;47465;43.094;12.434;2023-03-22T11:45:55;98699.44;;;16.87;61.80
61573;BME280;47465;43.094;12.434;2023-03-22T11:48:24;98668.72;;;16.75;63.65
61573;BME280;47465;43.094;12.434;2023-03-22T11:50:57;98677.03;;;16.88;62.28
61573;BME280;47465;43.094;12.434;2023-03-22T11:53:26;98680.00;;;16.99;61.74
61573;BME280;47465;43.094;12.434;2023-03-22T11:55:55;98672.84;;;16.82;59.13
61573;BME280;47465;43.094;12.434;2023-03-22T11:58:26;98677.56;;;16.77;61.52
61573;BME280;47465;43.094;12.434;2023-03-22T12:00:58;98677.22;;;16.85;60.84
61573;BME280;47465;43.094;12.434;2023-03-22T12:03:31;98669.75;;;16.90;60.09
61573;BME280;47465;43.094;12.434;2023-03-22T12:06:01;98665.78;;;16.97;59.06
61573;BME280;47465;43.094;12.434;2023-03-22T12:08:38;98693.88;;;17.23;60.09
61573;BME280;47465;43.094;12.434;2023-03-22T12:11:11;98658.50;;;17.15;59.19
61573;BME280;47465;43.094;12.434;2023-03-22T12:13:43;98676.03;;;17.38;59.83
61573;BME280;47465;43.094;12.434;2023-03-22T12:16:16;98662.97;;;17.48;58.19
61573;BME280;47465;43.094;12.434;2023-03-22T12:18:49;98638.41;;;17.38;57.61
61573;BME280;47465;43.094;12.434;2023-03-22T12:21:16;98626.03;;;17.36;57.59
61573;BME280;47465;43.094;12.434;2023-03-22T12:23:43;98630.19;;;17.41;57.99
61573;BME280;47465;43.094;12.434;2023-03-22T12:26:14;98659.31;;;17.49;56.98
61573;BME280;47465;43.094;12.434;2023-03-22T12:28:42;98636.84;;;17.34;57.62
61573;BME280;47465;43.094;12.434;2023-03-22T12:31:19;98660.09;;;17.51;56.60
61573;BME280;47465;43.094;12.434;2023-03-22T12:33:48;98653.16;;;17.47;56.49
61573;BME280;47465;43.094;12.434;2023-03-22T12:36:31;98622.78;;;17.45;57.79
61573;BME280;47465;43.094;12.434;2023-03-22T12:39:06;98617.06;;;17.51;57.24
61573;BME280;47465;43.094;12.434;2023-03-22T12:41:36;98619.50;;;17.56;55.25
61573;BME280;47465;43.094;12.434;2023-03-22T12:44:09;98622.53;;;17.65;56.46
61573;BME280;47465;43.094;12.434;2023-03-22T12:46:47;98607.25;;;17.66;56.70
61573;BME280;47465;43.094;12.434;2023-03-22T12:58:04;98603.72;;;17.50;53.90
61573;BME280;47465;43.094;12.434;2023-03-22T13:00:35;98597.97;;;17.56;55.51
61573;BME280;47465;43.094;12.434;2023-03-22T13:03:07;98598.69;;;17.59;54.44
61573;BME280;47465;43.094;12.434;2023-03-22T13:05:35;98622.31;;;17.84;55.90
61573;BME280;47465;43.094;12.434;2023-03-22T13:08:02;98592.84;;;17.83;54.90
61573;BME280;47465;43.094;12.434;2023-03-22T13:13:41;98592.28;;;17.92;52.99
61573;BME280;47465;43.094;12.434;2023-03-22T13:16:20;98584.41;;;17.89;55.43
61573;BME280;47465;43.094;12.434;2023-03-22T13:19:26;98612.88;;;18.08;53.81
61573;BME280;47465;43.094;12.434;2023-03-22T13:22:12;98587.09;;;17.89;53.69
61573;BME280;47465;43.094;12.434;2023-03-22T13:24:58;98580.75;;;17.90;53.03
61573;BME280;47465;43.094;12.434;2023-03-22T13:27:33;98573.66;;;17.89;54.09
61573;BME280;47465;43.094;12.434;2023-03-22T13:30:03;98572.25;;;17.98;53.55
61573;BME280;47465;43.094;12.434;2023-03-22T13:32:33;98569.13;;;17.90;54.38
61573;BME280;47465;43.094;12.434;2023-03-22T13:35:01;98578.28;;;18.01;55.06
61573;BME280;47465;43.094;12.434;2023-03-22T13:37:32;98567.59;;;18.00;54.32
61573;BME280;47465;43.094;12.434;2023-03-22T13:40:01;98568.78;;;18.10;53.82